Airfield :
LOGIN :

Register | Disclaimer

   EN    FR    IT 

 










Legend :    VFR   Marginal VFR   IFR   Intensive IFR   Very Intensive IFR
Visi :
Ceiling :
>= 8 km
>= 3000ft
5 to 8 km
1000 to 3000 ft
1500m to 5 km
500 to 1000 ft
800 to 1500m
200 to 500 ft
< 800m
< 200 ft
Symbols :   Thunderstorms  Fog  Heavy snow  Heavy precipitations  Wind > 20 kt
SIGMETs :     Misc.  Thunderstorms  Icing  Turbulence  Mountain Waves  Volcanic Ashes






- Airport Elevation : 1187 ft


LIBV - Gioia del Colle Bari

CURRENT METAR :
  • 281955Z 02003KT 8000 FEW025 06/06 Q1014

EXPIRED METARs :
  • 281855Z 04003KT 8000 NSC 06/06 Q1015 RMK SCT FEW060 SCT200 VIS MIN 8000 WIND THR32 04005KT WIND THR14 04002KT BLU
  • 281755Z 36002KT CAVOK 07/06 Q1015

TAF TAF LIBV
Valid from the 28 at 21:00 until the 29 at 06:00 UTC


282000Z 2821/2906 VRB03KT 8000 FEW025
TEMPO 2822/2902 5000 BR SCT015



MET'MAP, your aeronautical weather chart ! - Copyright ORBIFLY December 2007 - Disclaimer

ORBIFLY MET'MAP TEAM :

Programming & Development : Alexandra Zaïnal
Original concept : Baudouin d'Aumeries
Technical & hardware support : Manuel Goepfert
Assistance : Marc-Olivier Méhu




SOURCES & CREDITS :

   NOAA